sensor_id;sensor_type;location;lat;lon;timestamp;P1;durP1;ratioP1;P2;durP2;ratioP2
11123;SDS011;5616;42.692;23.312;2023-02-28T00:00:49;13.13;;;10.13;;
11123;SDS011;5616;42.692;23.312;2023-02-28T00:03:16;14.33;;;10.47;;
11123;SDS011;5616;42.692;23.312;2023-02-28T00:05:43;13.00;;;9.97;;
11123;SDS011;5616;42.692;23.312;2023-02-28T00:08:10;13.93;;;11.03;;
11123;SDS011;5616;42.692;23.312;2023-02-28T00:10:38;14.67;;;10.13;;
11123;SDS011;5616;42.692;23.312;2023-02-28T00:13:06;13.30;;;9.63;;
11123;SDS011;5616;42.692;23.312;2023-02-28T00:15:33;11.90;;;9.90;;
11123;SDS011;5616;42.692;23.312;2023-02-28T00:18:01;12.70;;;9.30;;
11123;SDS011;5616;42.692;23.312;2023-02-28T00:20:28;12.17;;;9.40;;
11123;SDS011;5616;42.692;23.312;2023-02-28T00:22:55;13.03;;;9.40;;
11123;SDS011;5616;42.692;23.312;2023-02-28T00:25:23;12.93;;;9.67;;
11123;SDS011;5616;42.692;23.312;2023-02-28T00:27:51;11.30;;;9.67;;
11123;SDS011;5616;42.692;23.312;2023-02-28T00:30:21;12.83;;;9.80;;
11123;SDS011;5616;42.692;23.312;2023-02-28T00:32:49;12.50;;;8.87;;
11123;SDS011;5616;42.692;23.312;2023-02-28T00:35:16;10.97;;;9.53;;
11123;SDS011;5616;42.692;23.312;2023-02-28T00:37:44;14.20;;;9.40;;
11123;SDS011;5616;42.692;23.312;2023-02-28T00:40:10;11.77;;;9.20;;
11123;SDS011;5616;42.692;23.312;2023-02-28T00:42:38;13.60;;;9.63;;
11123;SDS011;5616;42.692;23.312;2023-02-28T00:45:06;13.27;;;9.53;;
11123;SDS011;5616;42.692;23.312;2023-02-28T00:47:38;12.13;;;9.10;;
11123;SDS011;5616;42.692;23.312;2023-02-28T00:50:05;13.37;;;9.70;;
11123;SDS011;5616;42.692;23.312;2023-02-28T00:52:36;19.70;;;12.37;;
11123;SDS011;5616;42.692;23.312;2023-02-28T00:55:04;19.17;;;13.60;;
11123;SDS011;5616;42.692;23.312;2023-02-28T00:57:32;17.70;;;13.50;;
11123;SDS011;5616;42.692;23.312;2023-02-28T00:59:59;18.20;;;13.63;;
11123;SDS011;5616;42.692;23.312;2023-02-28T01:02:26;17.57;;;12.90;;
11123;SDS011;5616;42.692;23.312;2023-02-28T01:04:54;22.90;;;14.40;;
11123;SDS011;5616;42.692;23.312;2023-02-28T01:07:22;19.20;;;14.37;;
11123;SDS011;5616;42.692;23.312;2023-02-28T01:09:48;19.73;;;14.30;;
11123;SDS011;5616;42.692;23.312;2023-02-28T01:12:15;18.80;;;14.57;;
11123;SDS011;5616;42.692;23.312;2023-02-28T01:14:45;18.70;;;13.90;;
11123;SDS011;5616;42.692;23.312;2023-02-28T01:17:12;20.83;;;14.53;;
11123;SDS011;5616;42.692;23.312;2023-02-28T01:19:38;21.60;;;15.10;;
11123;SDS011;5616;42.692;23.312;2023-02-28T01:22:07;19.40;;;15.07;;
11123;SDS011;5616;42.692;23.312;2023-02-28T01:24:33;17.63;;;13.70;;
11123;SDS011;5616;42.692;23.312;2023-02-28T01:27:00;20.03;;;14.40;;
11123;SDS011;5616;42.692;23.312;2023-02-28T01:29:27;19.17;;;13.67;;
11123;SDS011;5616;42.692;23.312;2023-02-28T01:31:54;20.23;;;13.67;;
11123;SDS011;5616;42.692;23.312;2023-02-28T01:34:22;20.83;;;14.67;;
11123;SDS011;5616;42.692;23.312;2023-02-28T01:36:50;18.20;;;13.90;;
11123;SDS011;5616;42.692;23.312;2023-02-28T01:39:19;19.37;;;13.73;;
11123;SDS011;5616;42.692;23.312;2023-02-28T01:41:47;18.10;;;13.50;;
11123;SDS011;5616;42.692;23.312;2023-02-28T01:47:18;17.87;;;14.47;;
11123;SDS011;5616;42.692;23.312;2023-02-28T01:49:45;19.93;;;15.53;;
11123;SDS011;5616;42.692;23.312;2023-02-28T01:52:13;19.73;;;15.33;;
11123;SDS011;5616;42.692;23.312;2023-02-28T01:54:44;24.87;;;16.13;;
11123;SDS011;5616;42.692;23.312;2023-02-28T01:57:16;21.50;;;16.10;;
11123;SDS011;5616;42.692;23.312;2023-02-28T01:59:49;24.27;;;16.97;;
11123;SDS011;5616;42.692;23.312;2023-02-28T02:02:21;22.90;;;17.23;;
11123;SDS011;5616;42.692;23.312;2023-02-28T02:04:50;21.97;;;15.40;;
11123;SDS011;5616;42.692;23.312;2023-02-28T02:07:20;23.13;;;15.80;;
11123;SDS011;5616;42.692;23.312;2023-02-28T02:09:49;28.53;;;16.43;;
11123;SDS011;5616;42.692;23.312;2023-02-28T02:15:11;25.00;;;16.30;;
11123;SDS011;5616;42.692;23.312;2023-02-28T02:17:43;24.70;;;17.20;;
11123;SDS011;5616;42.692;23.312;2023-02-28T02:23:26;24.60;;;16.83;;
11123;SDS011;5616;42.692;23.312;2023-02-28T02:29:31;23.93;;;16.67;;
11123;SDS011;5616;42.692;23.312;2023-02-28T02:32:28;24.27;;;15.93;;
11123;SDS011;5616;42.692;23.312;2023-02-28T02:35:30;25.17;;;15.37;;
11123;SDS011;5616;42.692;23.312;2023-02-28T02:38:06;23.10;;;15.80;;
11123;SDS011;5616;42.692;23.312;2023-02-28T02:40:39;24.10;;;15.70;;
11123;SDS011;5616;42.692;23.312;2023-02-28T02:43:13;26.33;;;16.33;;
11123;SDS011;5616;42.692;23.312;2023-02-28T02:45:46;22.80;;;15.83;;
11123;SDS011;5616;42.692;23.312;2023-02-28T02:48:20;24.87;;;15.60;;
11123;SDS011;5616;42.692;23.312;2023-02-28T02:50:54;28.00;;;16.67;;
11123;SDS011;5616;42.692;23.312;2023-02-28T02:53:24;26.30;;;17.37;;
11123;SDS011;5616;42.692;23.312;2023-02-28T02:55:59;28.50;;;17.50;;
11123;SDS011;5616;42.692;23.312;2023-02-28T02:58:31;29.55;;;18.30;;
11123;SDS011;5616;42.692;23.312;2023-02-28T03:01:06;19.87;;;10.13;;
11123;SDS011;5616;42.692;23.312;2023-02-28T03:03:36;39.15;;;21.08;;
11123;SDS011;5616;42.692;23.312;2023-02-28T03:06:05;26.67;;;18.53;;
11123;SDS011;5616;42.692;23.312;2023-02-28T03:08:33;28.47;;;17.97;;
11123;SDS011;5616;42.692;23.312;2023-02-28T03:11:04;32.93;;;17.70;;
11123;SDS011;5616;42.692;23.312;2023-02-28T03:16:36;28.60;;;17.83;;
11123;SDS011;5616;42.692;23.312;2023-02-28T03:19:24;27.53;;;16.73;;
11123;SDS011;5616;42.692;23.312;2023-02-28T03:22:08;28.97;;;17.40;;
11123;SDS011;5616;42.692;23.312;2023-02-28T03:24:42;29.00;;;19.33;;
11123;SDS011;5616;42.692;23.312;2023-02-28T03:27:17;26.83;;;17.20;;
11123;SDS011;5616;42.692;23.312;2023-02-28T03:29:50;26.97;;;16.97;;
11123;SDS011;5616;42.692;23.312;2023-02-28T03:32:24;26.67;;;16.43;;
11123;SDS011;5616;42.692;23.312;2023-02-28T03:34:56;23.53;;;16.30;;
11123;SDS011;5616;42.692;23.312;2023-02-28T03:37:31;26.47;;;16.67;;
11123;SDS011;5616;42.692;23.312;2023-02-28T03:40:04;25.07;;;17.57;;
11123;SDS011;5616;42.692;23.312;2023-02-28T03:42:38;22.50;;;15.90;;
11123;SDS011;5616;42.692;23.312;2023-02-28T03:45:10;24.20;;;16.47;;
11123;SDS011;5616;42.692;23.312;2023-02-28T03:47:40;25.13;;;17.17;;
11123;SDS011;5616;42.692;23.312;2023-02-28T03:50:10;29.77;;;17.80;;
11123;SDS011;5616;42.692;23.312;2023-02-28T03:52:45;27.70;;;17.20;;
11123;SDS011;5616;42.692;23.312;2023-02-28T03:55:15;22.67;;;16.73;;
11123;SDS011;5616;42.692;23.312;2023-02-28T03:57:45;21.60;;;15.87;;
11123;SDS011;5616;42.692;23.312;2023-02-28T04:00:24;27.57;;;16.23;;
11123;SDS011;5616;42.692;23.312;2023-02-28T04:02:54;22.90;;;16.50;;
11123;SDS011;5616;42.692;23.312;2023-02-28T04:05:22;25.03;;;16.60;;
11123;SDS011;5616;42.692;23.312;2023-02-28T04:07:50;25.77;;;17.30;;
11123;SDS011;5616;42.692;23.312;2023-02-28T04:10:17;24.77;;;16.23;;
11123;SDS011;5616;42.692;23.312;2023-02-28T04:12:44;23.30;;;16.23;;
11123;SDS011;5616;42.692;23.312;2023-02-28T04:15:10;21.63;;;14.97;;
11123;SDS011;5616;42.692;23.312;2023-02-28T04:17:37;21.70;;;15.13;;
11123;SDS011;5616;42.692;23.312;2023-02-28T04:20:04;24.47;;;15.80;;
11123;SDS011;5616;42.692;23.312;2023-02-28T04:22:34;23.83;;;16.10;;
11123;SDS011;5616;42.692;23.312;2023-02-28T04:25:03;21.70;;;15.50;;
11123;SDS011;5616;42.692;23.312;2023-02-28T04:27:31;22.50;;;16.00;;
11123;SDS011;5616;42.692;23.312;2023-02-28T04:29:58;24.90;;;16.53;;
11123;SDS011;5616;42.692;23.312;2023-02-28T04:32:25;24.67;;;15.90;;
11123;SDS011;5616;42.692;23.312;2023-02-28T04:34:52;24.83;;;16.60;;
11123;SDS011;5616;42.692;23.312;2023-02-28T04:37:19;25.13;;;16.67;;
11123;SDS011;5616;42.692;23.312;2023-02-28T04:39:46;25.27;;;16.67;;
11123;SDS011;5616;42.692;23.312;2023-02-28T04:42:14;24.83;;;16.57;;
11123;SDS011;5616;42.692;23.312;2023-02-28T04:44:41;26.97;;;17.47;;
11123;SDS011;5616;42.692;23.312;2023-02-28T04:47:08;27.43;;;17.03;;
11123;SDS011;5616;42.692;23.312;2023-02-28T04:49:35;26.50;;;17.00;;
11123;SDS011;5616;42.692;23.312;2023-02-28T04:52:02;26.73;;;17.20;;
11123;SDS011;5616;42.692;23.312;2023-02-28T04:54:29;27.03;;;16.63;;
11123;SDS011;5616;42.692;23.312;2023-02-28T04:56:55;29.53;;;17.97;;
11123;SDS011;5616;42.692;23.312;2023-02-28T04:59:24;34.27;;;23.50;;
11123;SDS011;5616;42.692;23.312;2023-02-28T05:01:50;41.85;;;31.23;;
11123;SDS011;5616;42.692;23.312;2023-02-28T05:04:17;48.63;;;34.57;;
11123;SDS011;5616;42.692;23.312;2023-02-28T05:06:44;56.37;;;38.60;;
11123;SDS011;5616;42.692;23.312;2023-02-28T05:09:11;55.40;;;37.10;;
11123;SDS011;5616;42.692;23.312;2023-02-28T05:11:38;40.37;;;27.60;;
11123;SDS011;5616;42.692;23.312;2023-02-28T05:14:06;44.80;;;28.43;;
11123;SDS011;5616;42.692;23.312;2023-02-28T05:16:38;40.03;;;25.93;;
11123;SDS011;5616;42.692;23.312;2023-02-28T05:19:04;36.80;;;23.07;;
11123;SDS011;5616;42.692;23.312;2023-02-28T05:21:32;36.20;;;23.13;;
11123;SDS011;5616;42.692;23.312;2023-02-28T05:24:01;37.70;;;22.47;;
11123;SDS011;5616;42.692;23.312;2023-02-28T05:26:30;38.23;;;24.20;;
11123;SDS011;5616;42.692;23.312;2023-02-28T05:28:57;44.50;;;24.63;;
11123;SDS011;5616;42.692;23.312;2023-02-28T05:31:24;42.37;;;24.97;;
11123;SDS011;5616;42.692;23.312;2023-02-28T05:33:52;36.60;;;21.97;;
11123;SDS011;5616;42.692;23.312;2023-02-28T05:36:19;33.53;;;20.83;;
11123;SDS011;5616;42.692;23.312;2023-02-28T05:38:46;28.67;;;18.67;;
11123;SDS011;5616;42.692;23.312;2023-02-28T05:41:14;29.10;;;17.97;;
11123;SDS011;5616;42.692;23.312;2023-02-28T05:43:41;28.23;;;18.37;;
11123;SDS011;5616;42.692;23.312;2023-02-28T05:46:09;24.97;;;16.37;;
11123;SDS011;5616;42.692;23.312;2023-02-28T05:48:37;25.07;;;17.57;;
11123;SDS011;5616;42.692;23.312;2023-02-28T05:51:06;36.42;;;24.88;;
11123;SDS011;5616;42.692;23.312;2023-02-28T05:53:34;38.80;;;22.50;;
11123;SDS011;5616;42.692;23.312;2023-02-28T05:56:01;38.53;;;22.13;;
11123;SDS011;5616;42.692;23.312;2023-02-28T05:58:29;36.73;;;22.27;;
11123;SDS011;5616;42.692;23.312;2023-02-28T06:00:56;33.40;;;18.73;;
11123;SDS011;5616;42.692;23.312;2023-02-28T06:03:24;28.70;;;19.73;;
11123;SDS011;5616;42.692;23.312;2023-02-28T06:05:52;27.50;;;17.80;;
11123;SDS011;5616;42.692;23.312;2023-02-28T06:08:21;24.33;;;16.47;;
11123;SDS011;5616;42.692;23.312;2023-02-28T06:10:48;25.53;;;16.47;;
11123;SDS011;5616;42.692;23.312;2023-02-28T06:13:15;23.27;;;16.60;;
11123;SDS011;5616;42.692;23.312;2023-02-28T06:15:41;26.33;;;17.97;;
11123;SDS011;5616;42.692;23.312;2023-02-28T06:18:08;25.70;;;17.77;;
11123;SDS011;5616;42.692;23.312;2023-02-28T06:20:35;27.80;;;18.40;;
11123;SDS011;5616;42.692;23.312;2023-02-28T06:23:02;47.67;;;26.23;;
11123;SDS011;5616;42.692;23.312;2023-02-28T06:25:30;30.83;;;20.70;;
11123;SDS011;5616;42.692;23.312;2023-02-28T06:27:57;37.63;;;20.67;;
11123;SDS011;5616;42.692;23.312;2023-02-28T06:30:24;31.67;;;20.50;;
11123;SDS011;5616;42.692;23.312;2023-02-28T06:32:52;33.37;;;21.13;;
11123;SDS011;5616;42.692;23.312;2023-02-28T06:35:19;32.57;;;19.47;;
11123;SDS011;5616;42.692;23.312;2023-02-28T06:37:45;29.43;;;18.87;;
11123;SDS011;5616;42.692;23.312;2023-02-28T06:40:13;31.90;;;19.73;;
11123;SDS011;5616;42.692;23.312;2023-02-28T06:42:42;32.50;;;21.90;;
11123;SDS011;5616;42.692;23.312;2023-02-28T06:45:09;34.50;;;21.03;;
11123;SDS011;5616;42.692;23.312;2023-02-28T06:47:36;34.47;;;20.60;;
11123;SDS011;5616;42.692;23.312;2023-02-28T06:50:05;29.17;;;18.07;;
11123;SDS011;5616;42.692;23.312;2023-02-28T06:52:33;31.60;;;19.83;;
11123;SDS011;5616;42.692;23.312;2023-02-28T06:55:03;27.20;;;18.83;;
11123;SDS011;5616;42.692;23.312;2023-02-28T06:57:30;38.03;;;22.10;;
11123;SDS011;5616;42.692;23.312;2023-02-28T07:00:00;40.90;;;24.10;;
11123;SDS011;5616;42.692;23.312;2023-02-28T07:02:29;40.87;;;23.43;;
11123;SDS011;5616;42.692;23.312;2023-02-28T07:04:56;45.00;;;25.13;;
11123;SDS011;5616;42.692;23.312;2023-02-28T07:07:23;43.23;;;24.53;;
11123;SDS011;5616;42.692;23.312;2023-02-28T07:09:50;40.43;;;23.90;;
11123;SDS011;5616;42.692;23.312;2023-02-28T07:12:17;37.57;;;23.00;;
11123;SDS011;5616;42.692;23.312;2023-02-28T07:14:43;37.33;;;21.37;;
11123;SDS011;5616;42.692;23.312;2023-02-28T07:17:12;34.30;;;20.87;;
11123;SDS011;5616;42.692;23.312;2023-02-28T07:19:38;30.13;;;19.60;;
11123;SDS011;5616;42.692;23.312;2023-02-28T07:22:05;29.93;;;19.13;;
11123;SDS011;5616;42.692;23.312;2023-02-28T07:24:33;24.77;;;17.07;;
11123;SDS011;5616;42.692;23.312;2023-02-28T07:27:00;20.83;;;16.30;;
11123;SDS011;5616;42.692;23.312;2023-02-28T07:29:27;28.07;;;18.33;;
11123;SDS011;5616;42.692;23.312;2023-02-28T07:31:54;31.87;;;19.70;;
11123;SDS011;5616;42.692;23.312;2023-02-28T07:34:22;34.50;;;20.93;;
11123;SDS011;5616;42.692;23.312;2023-02-28T07:36:52;29.47;;;20.50;;
11123;SDS011;5616;42.692;23.312;2023-02-28T07:39:19;36.60;;;20.90;;
11123;SDS011;5616;42.692;23.312;2023-02-28T07:41:46;33.27;;;20.27;;
11123;SDS011;5616;42.692;23.312;2023-02-28T07:44:13;28.40;;;20.20;;
11123;SDS011;5616;42.692;23.312;2023-02-28T07:46:40;30.20;;;20.40;;
11123;SDS011;5616;42.692;23.312;2023-02-28T07:49:07;29.07;;;20.10;;
11123;SDS011;5616;42.692;23.312;2023-02-28T07:51:35;33.60;;;20.47;;
11123;SDS011;5616;42.692;23.312;2023-02-28T07:54:02;32.63;;;20.77;;
11123;SDS011;5616;42.692;23.312;2023-02-28T07:56:29;33.23;;;20.37;;
11123;SDS011;5616;42.692;23.312;2023-02-28T07:58:56;28.10;;;20.00;;
11123;SDS011;5616;42.692;23.312;2023-02-28T08:01:23;31.80;;;20.37;;
11123;SDS011;5616;42.692;23.312;2023-02-28T08:03:50;27.40;;;18.83;;
11123;SDS011;5616;42.692;23.312;2023-02-28T08:06:20;28.20;;;19.23;;
11123;SDS011;5616;42.692;23.312;2023-02-28T08:08:50;24.53;;;18.27;;
11123;SDS011;5616;42.692;23.312;2023-02-28T08:11:17;26.40;;;18.77;;
11123;SDS011;5616;42.692;23.312;2023-02-28T08:13:45;28.50;;;17.97;;
11123;SDS011;5616;42.692;23.312;2023-02-28T08:16:12;27.13;;;17.77;;
11123;SDS011;5616;42.692;23.312;2023-02-28T08:18:42;25.47;;;16.73;;
11123;SDS011;5616;42.692;23.312;2023-02-28T08:21:09;24.33;;;17.80;;
11123;SDS011;5616;42.692;23.312;2023-02-28T08:23:37;26.40;;;18.53;;
11123;SDS011;5616;42.692;23.312;2023-02-28T08:26:05;24.73;;;17.17;;
11123;SDS011;5616;42.692;23.312;2023-02-28T08:28:32;26.57;;;17.57;;
11123;SDS011;5616;42.692;23.312;2023-02-28T08:30:59;30.27;;;19.87;;
11123;SDS011;5616;42.692;23.312;2023-02-28T08:33:26;27.27;;;18.73;;
11123;SDS011;5616;42.692;23.312;2023-02-28T08:35:54;25.50;;;18.47;;
11123;SDS011;5616;42.692;23.312;2023-02-28T08:38:21;27.87;;;18.47;;
11123;SDS011;5616;42.692;23.312;2023-02-28T08:40:48;26.30;;;19.17;;
11123;SDS011;5616;42.692;23.312;2023-02-28T08:43:16;24.57;;;17.90;;
11123;SDS011;5616;42.692;23.312;2023-02-28T08:45:43;24.53;;;18.90;;
11123;SDS011;5616;42.692;23.312;2023-02-28T08:48:10;25.23;;;18.50;;
11123;SDS011;5616;42.692;23.312;2023-02-28T08:50:36;24.20;;;18.20;;
11123;SDS011;5616;42.692;23.312;2023-02-28T08:53:03;25.73;;;19.60;;
11123;SDS011;5616;42.692;23.312;2023-02-28T08:55:30;28.70;;;19.43;;
11123;SDS011;5616;42.692;23.312;2023-02-28T08:57:57;31.73;;;20.23;;
11123;SDS011;5616;42.692;23.312;2023-02-28T09:00:26;28.63;;;19.33;;
11123;SDS011;5616;42.692;23.312;2023-02-28T09:02:52;29.97;;;20.50;;
11123;SDS011;5616;42.692;23.312;2023-02-28T09:05:19;26.43;;;20.20;;
11123;SDS011;5616;42.692;23.312;2023-02-28T09:07:46;29.53;;;19.77;;
11123;SDS011;5616;42.692;23.312;2023-02-28T09:10:13;28.47;;;20.67;;
11123;SDS011;5616;42.692;23.312;2023-02-28T09:12:40;28.23;;;20.23;;
11123;SDS011;5616;42.692;23.312;2023-02-28T09:15:07;28.53;;;20.23;;
11123;SDS011;5616;42.692;23.312;2023-02-28T09:17:36;33.17;;;22.07;;
11123;SDS011;5616;42.692;23.312;2023-02-28T09:20:03;43.80;;;27.07;;
11123;SDS011;5616;42.692;23.312;2023-02-28T09:22:31;40.60;;;25.50;;
11123;SDS011;5616;42.692;23.312;2023-02-28T09:24:58;38.70;;;25.10;;
11123;SDS011;5616;42.692;23.312;2023-02-28T09:27:25;42.47;;;24.90;;
11123;SDS011;5616;42.692;23.312;2023-02-28T09:29:51;34.40;;;24.37;;
11123;SDS011;5616;42.692;23.312;2023-02-28T09:32:18;37.67;;;24.27;;
11123;SDS011;5616;42.692;23.312;2023-02-28T09:34:46;35.07;;;24.50;;
11123;SDS011;5616;42.692;23.312;2023-02-28T09:37:13;40.13;;;25.50;;
11123;SDS011;5616;42.692;23.312;2023-02-28T09:39:40;39.57;;;24.13;;
11123;SDS011;5616;42.692;23.312;2023-02-28T09:42:11;40.57;;;25.47;;
11123;SDS011;5616;42.692;23.312;2023-02-28T09:44:47;37.43;;;24.57;;
11123;SDS011;5616;42.692;23.312;2023-02-28T09:47:18;45.27;;;24.80;;
11123;SDS011;5616;42.692;23.312;2023-02-28T09:49:54;37.50;;;24.03;;
11123;SDS011;5616;42.692;23.312;2023-02-28T09:52:27;38.07;;;24.93;;
11123;SDS011;5616;42.692;23.312;2023-02-28T09:54:56;40.90;;;25.53;;
11123;SDS011;5616;42.692;23.312;2023-02-28T09:57:30;35.03;;;25.10;;
11123;SDS011;5616;42.692;23.312;2023-02-28T10:00:03;37.03;;;23.70;;
11123;SDS011;5616;42.692;23.312;2023-02-28T10:02:44;49.80;;;28.33;;
11123;SDS011;5616;42.692;23.312;2023-02-28T10:05:31;36.27;;;21.90;;
11123;SDS011;5616;42.692;23.312;2023-02-28T10:08:03;27.23;;;17.70;;
11123;SDS011;5616;42.692;23.312;2023-02-28T10:10:37;46.37;;;22.60;;
11123;SDS011;5616;42.692;23.312;2023-02-28T10:13:13;27.80;;;14.63;;
11123;SDS011;5616;42.692;23.312;2023-02-28T10:15:45;22.17;;;13.93;;
11123;SDS011;5616;42.692;23.312;2023-02-28T10:18:18;25.43;;;13.00;;
11123;SDS011;5616;42.692;23.312;2023-02-28T10:20:51;19.97;;;12.40;;
11123;SDS011;5616;42.692;23.312;2023-02-28T10:23:23;20.30;;;11.83;;
11123;SDS011;5616;42.692;23.312;2023-02-28T10:25:54;26.03;;;13.80;;
11123;SDS011;5616;42.692;23.312;2023-02-28T10:28:23;16.80;;;10.50;;
11123;SDS011;5616;42.692;23.312;2023-02-28T10:30:53;21.93;;;12.67;;
11123;SDS011;5616;42.692;23.312;2023-02-28T10:33:25;24.93;;;12.87;;
11123;SDS011;5616;42.692;23.312;2023-02-28T10:35:57;14.73;;;9.80;;
11123;SDS011;5616;42.692;23.312;2023-02-28T10:38:24;20.43;;;11.07;;
11123;SDS011;5616;42.692;23.312;2023-02-28T10:41:03;25.37;;;10.43;;
11123;SDS011;5616;42.692;23.312;2023-02-28T10:43:31;37.60;;;15.90;;
11123;SDS011;5616;42.692;23.312;2023-02-28T10:45:59;21.73;;;10.57;;
11123;SDS011;5616;42.692;23.312;2023-02-28T10:48:36;19.77;;;10.03;;
11123;SDS011;5616;42.692;23.312;2023-02-28T10:51:06;19.30;;;11.87;;
11123;SDS011;5616;42.692;23.312;2023-02-28T10:53:39;20.60;;;12.67;;
11123;SDS011;5616;42.692;23.312;2023-02-28T10:56:17;20.20;;;11.20;;
11123;SDS011;5616;42.692;23.312;2023-02-28T10:58:48;15.90;;;9.90;;
11123;SDS011;5616;42.692;23.312;2023-02-28T11:01:18;19.17;;;10.30;;
11123;SDS011;5616;42.692;23.312;2023-02-28T11:03:46;19.87;;;10.00;;
11123;SDS011;5616;42.692;23.312;2023-02-28T11:06:15;29.20;;;13.43;;
11123;SDS011;5616;42.692;23.312;2023-02-28T11:08:45;15.20;;;9.70;;
11123;SDS011;5616;42.692;23.312;2023-02-28T11:11:14;15.40;;;10.13;;
11123;SDS011;5616;42.692;23.312;2023-02-28T11:13:42;22.27;;;12.50;;
11123;SDS011;5616;42.692;23.312;2023-02-28T11:16:13;19.90;;;9.70;;
11123;SDS011;5616;42.692;23.312;2023-02-28T11:18:42;17.47;;;9.80;;
11123;SDS011;5616;42.692;23.312;2023-02-28T11:21:20;15.53;;;10.37;;
11123;SDS011;5616;42.692;23.312;2023-02-28T11:23:53;21.97;;;11.60;;
11123;SDS011;5616;42.692;23.312;2023-02-28T11:26:35;21.17;;;11.23;;
11123;SDS011;5616;42.692;23.312;2023-02-28T11:29:11;28.37;;;14.80;;
11123;SDS011;5616;42.692;23.312;2023-02-28T11:31:42;23.27;;;11.97;;
11123;SDS011;5616;42.692;23.312;2023-02-28T11:34:23;18.03;;;10.33;;
11123;SDS011;5616;42.692;23.312;2023-02-28T11:36:52;20.27;;;11.10;;
11123;SDS011;5616;42.692;23.312;2023-02-28T11:39:21;23.50;;;11.17;;
11123;SDS011;5616;42.692;23.312;2023-02-28T11:41:56;28.67;;;13.53;;
11123;SDS011;5616;42.692;23.312;2023-02-28T11:44:43;18.03;;;9.80;;
11123;SDS011;5616;42.692;23.312;2023-02-28T11:47:27;19.93;;;9.37;;
11123;SDS011;5616;42.692;23.312;2023-02-28T11:53:17;23.63;;;14.30;;
11123;SDS011;5616;42.692;23.312;2023-02-28T11:55:49;20.03;;;11.50;;
11123;SDS011;5616;42.692;23.312;2023-02-28T11:58:33;22.70;;;13.37;;
11123;SDS011;5616;42.692;23.312;2023-02-28T12:04:19;21.27;;;12.83;;
11123;SDS011;5616;42.692;23.312;2023-02-28T12:06:53;22.87;;;12.67;;
11123;SDS011;5616;42.692;23.312;2023-02-28T12:09:32;20.33;;;10.87;;
11123;SDS011;5616;42.692;23.312;2023-02-28T12:12:07;19.57;;;11.40;;
11123;SDS011;5616;42.692;23.312;2023-02-28T12:14:58;20.23;;;10.67;;
11123;SDS011;5616;42.692;23.312;2023-02-28T12:17:43;43.30;;;17.30;;
11123;SDS011;5616;42.692;23.312;2023-02-28T12:20:24;30.70;;;14.37;;
11123;SDS011;5616;42.692;23.312;2023-02-28T12:22:59;36.83;;;14.93;;
11123;SDS011;5616;42.692;23.312;2023-02-28T12:25:48;21.70;;;10.20;;
11123;SDS011;5616;42.692;23.312;2023-02-28T12:28:23;16.97;;;9.53;;
11123;SDS011;5616;42.692;23.312;2023-02-28T12:30:56;16.47;;;8.63;;
11123;SDS011;5616;42.692;23.312;2023-02-28T12:33:27;14.40;;;9.07;;
11123;SDS011;5616;42.692;23.312;2023-02-28T12:36:00;19.40;;;9.83;;
11123;SDS011;5616;42.692;23.312;2023-02-28T12:38:34;16.27;;;10.13;;
11123;SDS011;5616;42.692;23.312;2023-02-28T12:41:08;16.93;;;9.30;;
11123;SDS011;5616;42.692;23.312;2023-02-28T12:43:41;20.30;;;10.30;;
11123;SDS011;5616;42.692;23.312;2023-02-28T12:46:11;16.80;;;10.33;;
11123;SDS011;5616;42.692;23.312;2023-02-28T12:48:43;19.27;;;9.17;;
11123;SDS011;5616;42.692;23.312;2023-02-28T12:51:13;20.33;;;11.40;;
11123;SDS011;5616;42.692;23.312;2023-02-28T12:53:49;21.07;;;10.50;;
11123;SDS011;5616;42.692;23.312;2023-02-28T12:56:27;15.07;;;9.57;;
11123;SDS011;5616;42.692;23.312;2023-02-28T12:59:03;21.03;;;10.37;;
11123;SDS011;5616;42.692;23.312;2023-02-28T13:01:42;16.63;;;9.77;;
11123;SDS011;5616;42.692;23.312;2023-02-28T13:04:34;15.13;;;8.63;;
11123;SDS011;5616;42.692;23.312;2023-02-28T13:10:17;24.60;;;10.63;;
11123;SDS011;5616;42.692;23.312;2023-02-28T13:12:50;18.37;;;8.87;;
11123;SDS011;5616;42.692;23.312;2023-02-28T13:15:19;32.50;;;14.30;;
11123;SDS011;5616;42.692;23.312;2023-02-28T13:17:50;22.13;;;10.40;;
11123;SDS011;5616;42.692;23.312;2023-02-28T13:20:19;24.43;;;12.37;;
11123;SDS011;5616;42.692;23.312;2023-02-28T13:22:48;29.43;;;14.30;;
11123;SDS011;5616;42.692;23.312;2023-02-28T13:31:20;25.93;;;14.90;;
11123;SDS011;5616;42.692;23.312;2023-02-28T13:34:12;19.07;;;11.40;;
11123;SDS011;5616;42.692;23.312;2023-02-28T13:36:40;17.03;;;9.60;;
11123;SDS011;5616;42.692;23.312;2023-02-28T13:42:23;16.73;;;9.27;;
11123;SDS011;5616;42.692;23.312;2023-02-28T13:45:20;16.30;;;9.77;;
11123;SDS011;5616;42.692;23.312;2023-02-28T13:47:53;19.13;;;9.33;;
11123;SDS011;5616;42.692;23.312;2023-02-28T13:50:24;18.77;;;8.10;;
11123;SDS011;5616;42.692;23.312;2023-02-28T13:53:05;17.97;;;8.73;;
11123;SDS011;5616;42.692;23.312;2023-02-28T13:56:08;18.90;;;8.80;;
11123;SDS011;5616;42.692;23.312;2023-02-28T13:58:48;18.10;;;7.73;;
11123;SDS011;5616;42.692;23.312;2023-02-28T14:01:39;13.47;;;7.83;;
11123;SDS011;5616;42.692;23.312;2023-02-28T14:07:20;14.10;;;8.40;;
11123;SDS011;5616;42.692;23.312;2023-02-28T14:09:54;18.47;;;8.93;;
11123;SDS011;5616;42.692;23.312;2023-02-28T14:15:43;16.73;;;8.63;;
11123;SDS011;5616;42.692;23.312;2023-02-28T14:21:07;12.57;;;8.00;;
11123;SDS011;5616;42.692;23.312;2023-02-28T14:23:47;13.80;;;8.67;;
11123;SDS011;5616;42.692;23.312;2023-02-28T14:26:43;14.03;;;8.93;;
11123;SDS011;5616;42.692;23.312;2023-02-28T14:29:43;17.10;;;8.67;;
11123;SDS011;5616;42.692;23.312;2023-02-28T14:32:32;16.65;;;10.25;;
11123;SDS011;5616;42.692;23.312;2023-02-28T14:35:12;17.25;;;11.93;;
11123;SDS011;5616;42.692;23.312;2023-02-28T14:37:48;16.80;;;9.80;;
11123;SDS011;5616;42.692;23.312;2023-02-28T14:40:16;18.97;;;9.50;;
11123;SDS011;5616;42.692;23.312;2023-02-28T14:42:47;17.67;;;9.57;;
11123;SDS011;5616;42.692;23.312;2023-02-28T14:45:20;14.17;;;7.90;;
11123;SDS011;5616;42.692;23.312;2023-02-28T14:47:48;19.73;;;9.30;;
11123;SDS011;5616;42.692;23.312;2023-02-28T14:50:17;14.10;;;9.00;;
11123;SDS011;5616;42.692;23.312;2023-02-28T14:52:46;18.33;;;8.83;;
11123;SDS011;5616;42.692;23.312;2023-02-28T14:55:17;15.70;;;8.43;;
11123;SDS011;5616;42.692;23.312;2023-02-28T14:57:55;16.17;;;8.20;;
11123;SDS011;5616;42.692;23.312;2023-02-28T15:00:24;13.40;;;7.77;;
11123;SDS011;5616;42.692;23.312;2023-02-28T15:02:52;13.87;;;8.27;;
11123;SDS011;5616;42.692;23.312;2023-02-28T15:05:30;12.97;;;8.53;;
11123;SDS011;5616;42.692;23.312;2023-02-28T15:08:04;16.57;;;7.97;;
11123;SDS011;5616;42.692;23.312;2023-02-28T15:10:33;13.63;;;7.80;;
11123;SDS011;5616;42.692;23.312;2023-02-28T15:13:01;13.47;;;7.60;;
11123;SDS011;5616;42.692;23.312;2023-02-28T15:15:34;11.97;;;7.50;;
11123;SDS011;5616;42.692;23.312;2023-02-28T15:18:07;19.23;;;8.87;;
11123;SDS011;5616;42.692;23.312;2023-02-28T15:20:40;16.20;;;8.27;;
11123;SDS011;5616;42.692;23.312;2023-02-28T15:23:10;16.20;;;7.43;;
11123;SDS011;5616;42.692;23.312;2023-02-28T15:25:37;15.23;;;7.70;;
11123;SDS011;5616;42.692;23.312;2023-02-28T15:28:09;13.03;;;7.30;;